This is the latest recevied weather packets stored in our database for station/object KC4ANB. If no packets are shown the sender has not sent any weather packets the latest 10 day(s).
| Time | Temp. | Humidity | Pressure | Rain* | Wind** | Luminosity | Snow |
|---|---|---|---|---|---|---|---|
| 1777922356 | 24.44° C | 46% | 1014.2 hPa | 0 mm | - | - | - |
| 1777919956 | 23.89° C | 49% | 1014.7 hPa | 0 mm | - | - | - |
| 1777915157 | 23.89° C | 49% | 1015.8 hPa | 0 mm | - | - | - |
| 1777913957 | 23.89° C | 48% | 1016.1 hPa | 0 mm | - | - | - |
| 1777913357 | 23.33° C | 53% | 1016.3 hPa | 0 mm | - | - | - |
| 1777911556 | 22.78° C | 49% | 1016.7 hPa | 0 mm | - | - | - |
| 1777910356 | 22.22° C | 53% | 1016.8 hPa | 0 mm | - | - | - |
| 1777906156 | 20.56° C | 60% | 1016.9 hPa | 0 mm | - | - | - |
| 1777903755 | 18.33° C | 63% | 1017.1 hPa | 0 mm | - | - | - |
| 1777901955 | 17.22° C | 66% | 1017.3 hPa | 0 mm | - | - | - |
| 1777897178 | 12.78° C | 76% | 1017 hPa | 0 mm | - | - | - |
| 1777895957 | 10° C | 89% | 1016.7 hPa | 0 mm | - | - | - |
| 1777894757 | 8.89° C | 89% | 1016.5 hPa | 0 mm | - | - | - |
| 1777889978 | 8.33° C | 87% | 1016.4 hPa | 0 mm | - | - | - |
| 1777886357 | 8.89° C | 86% | 1016.1 hPa | 0 mm | - | - | - |
| 1777885157 | 8.89° C | 87% | 1016.3 hPa | 0 mm | - | - | - |
| 1777881557 | 8.33° C | 85% | 1016.3 hPa | 0 mm | - | - | - |
| 1777880977 | 8.33° C | 85% | 1016.3 hPa | 0 mm | - | - | - |
| 1777876765 | 9.44° C | 84% | 1016.4 hPa | 0 mm | - | - | - |
| 1777876157 | 9.44° C | 83% | 1016.6 hPa | 0 mm | - | - | - |
| 1777875556 | 9.44° C | 84% | 1016.7 hPa | 0 mm | - | - | - |
| 1777871956 | 10° C | 82% | 1017.3 hPa | 0 mm | - | - | - |
| 1777870155 | 10° C | 81% | 1017.3 hPa | 0 mm | - | - | - |
| 1777867157 | 10.56° C | 77% | 1017.6 hPa | 0 mm | - | - | - |
| 1777864157 | 11.11° C | 75% | 1017.8 hPa | 0 mm | - | - | - |
* Rain latest hour (hover to see other rain measurements)
** Current wind speed in m/s (hover to see current wind gust speed)